createdAt,value
2022-08-05T00:00:46.283Z,95971.19
2022-08-05T00:03:15.850Z,95970.63
2022-08-05T00:06:05.647Z,95975.88
2022-08-05T00:08:34.701Z,95969.97
2022-08-05T00:11:04.202Z,95964.16
2022-08-05T00:13:38.775Z,95966.25
2022-08-05T00:16:08.967Z,95964.50
2022-08-05T00:18:37.855Z,95962.31
2022-08-05T00:21:05.212Z,95967.78
2022-08-05T00:23:46.915Z,95969.63
2022-08-05T00:26:20.657Z,95964.78
2022-08-05T00:28:47.246Z,95965.03
2022-08-05T00:31:15.982Z,95962.84
2022-08-05T00:34:54.216Z,95968.16
2022-08-05T00:37:11.459Z,95959.25
2022-08-05T00:39:15.828Z,95955.97
2022-08-05T00:41:55.337Z,95960.75
2022-08-05T00:44:30.874Z,95958.53
2022-08-05T00:47:01.891Z,95960.63
2022-08-05T00:49:32.655Z,95956.84
2022-08-05T00:51:59.628Z,95957.31
2022-08-05T00:54:28.210Z,95962.28
2022-08-05T00:56:57.147Z,95960.66
2022-08-05T00:59:23.809Z,95957.19
2022-08-05T01:01:50.918Z,95951.03
2022-08-05T01:04:20.205Z,95958.22
2022-08-05T01:06:53.443Z,95957.06
2022-08-05T01:09:21.772Z,95955.69
2022-08-05T01:11:52.061Z,95954.50
2022-08-05T01:14:35.249Z,95950.69
2022-08-05T01:17:05.510Z,95953.78
2022-08-05T01:20:01.639Z,95942.81
2022-08-05T01:22:57.684Z,95945.38
2022-08-05T01:25:53.811Z,95944.78
2022-08-05T01:28:37.461Z,95945.00
2022-08-05T01:31:18.730Z,95935.03
2022-08-05T01:33:54.278Z,95944.19
2022-08-05T01:36:28.365Z,95932.72
2022-08-05T01:38:56.457Z,95931.66
2022-08-05T01:41:29.529Z,95935.38
2022-08-05T01:43:57.217Z,95939.09
2022-08-05T01:46:41.369Z,95939.53
2022-08-05T01:49:23.605Z,95924.50
2022-08-05T01:51:55.151Z,95933.75
2022-08-05T01:54:27.354Z,95933.97
2022-08-05T01:58:12.246Z,95935.25
2022-08-05T01:59:47.262Z,95931.19
2022-08-05T02:02:16.004Z,95938.16
2022-08-05T02:04:46.267Z,95926.81
2022-08-05T02:07:21.848Z,95928.66
2022-08-05T02:09:50.055Z,95924.03
2022-08-05T02:12:32.993Z,95927.47
2022-08-05T02:15:03.439Z,95918.91
2022-08-05T02:18:30.718Z,95923.44
2022-08-05T02:20:26.663Z,95921.22
2022-08-05T02:23:00.035Z,95916.56
2022-08-05T02:25:33.437Z,95916.81
2022-08-05T02:28:16.369Z,95915.19
2022-08-05T02:31:01.343Z,95914.03
2022-08-05T02:33:38.322Z,95909.38
2022-08-05T02:36:09.635Z,95910.09
2022-08-05T02:38:43.348Z,95899.88
2022-08-05T02:41:17.331Z,95903.13
2022-08-05T02:44:06.416Z,95899.63
2022-08-05T02:46:35.963Z,95901.50
2022-08-05T02:49:21.987Z,95901.94
2022-08-05T02:52:02.784Z,95901.94
2022-08-05T02:54:35.668Z,95900.94
2022-08-05T02:58:10.668Z,95895.00
2022-08-05T03:00:13.392Z,95890.16
2022-08-05T03:02:40.854Z,95896.50
2022-08-05T03:05:11.682Z,95896.63
2022-08-05T03:08:00.486Z,95887.50
2022-08-05T03:10:27.775Z,95888.50
2022-08-05T03:12:54.436Z,95892.22
2022-08-05T03:15:23.552Z,95892.69
2022-08-05T03:17:54.064Z,95887.13
2022-08-05T03:20:23.660Z,95887.38
2022-08-05T03:22:51.543Z,95897.53
2022-08-05T03:25:32.834Z,95894.66
2022-08-05T03:28:08.954Z,95896.50
2022-08-05T03:30:38.271Z,95896.72
2022-08-05T03:33:08.296Z,95899.63
2022-08-05T03:35:40.841Z,95894.75
2022-08-05T03:38:12.243Z,95893.50
2022-08-05T03:40:45.052Z,95892.69
2022-08-05T03:43:58.743Z,95890.25
2022-08-05T03:46:02.505Z,95895.59
2022-08-05T03:48:30.074Z,95894.66
2022-08-05T03:52:48.657Z,95891.28
2022-08-05T03:55:53.147Z,95890.16
2022-08-05T03:57:20.777Z,95883.66
2022-08-05T03:59:54.703Z,95892.44
2022-08-05T04:02:37.478Z,95887.94
2022-08-05T04:05:09.697Z,95891.75
2022-08-05T04:07:53.097Z,95890.28
2022-08-05T04:10:33.237Z,95894.13
2022-08-05T04:13:05.403Z,95894.13
2022-08-05T04:15:33.200Z,95885.06
2022-08-05T04:18:07.067Z,95894.22
2022-08-05T04:20:34.599Z,95887.84
2022-08-05T04:23:01.424Z,95885.78
2022-08-05T04:25:56.871Z,95890.63
2022-08-05T04:28:14.977Z,95891.34
2022-08-05T04:30:41.711Z,95887.97
2022-08-05T04:33:09.580Z,95884.16
2022-08-05T04:36:10.726Z,95887.78
2022-08-05T04:38:22.754Z,95885.78
2022-08-05T04:41:06.702Z,95890.19
2022-08-05T04:43:34.185Z,95882.06
2022-08-05T04:46:01.009Z,95884.84
2022-08-05T04:48:28.395Z,95883.34
2022-08-05T04:51:03.697Z,95883.69
2022-08-05T04:53:38.707Z,95885.41
2022-08-05T04:56:33.214Z,95881.00
2022-08-05T04:58:56.660Z,95881.94
2022-08-05T05:02:05.791Z,95881.25
2022-08-05T05:04:09.722Z,95877.63
2022-08-05T05:06:44.046Z,95873.47
2022-08-05T05:09:13.346Z,95868.81
2022-08-05T05:11:48.565Z,95879.00
2022-08-05T05:14:19.606Z,95873.75
2022-08-05T05:16:58.933Z,95872.00
2022-08-05T05:19:27.372Z,95879.06
2022-08-05T05:21:55.550Z,95866.88
2022-08-05T05:24:22.275Z,95875.31
2022-08-05T05:27:08.786Z,95871.09
2022-08-05T05:29:41.111Z,95872.81
2022-08-05T05:32:21.994Z,95869.75
2022-08-05T05:34:48.581Z,95866.16
2022-08-05T05:37:19.195Z,95868.91
2022-08-05T05:39:45.786Z,95871.41
2022-08-05T05:42:12.394Z,95878.22
2022-08-05T05:44:43.214Z,95871.09
2022-08-05T05:47:21.399Z,95877.91
2022-08-05T05:49:56.716Z,95876.72
2022-08-05T05:52:31.352Z,95871.00
2022-08-05T05:55:07.461Z,95870.34
2022-08-05T05:57:42.894Z,95859.81
2022-08-05T06:00:20.668Z,95869.03
2022-08-05T06:02:54.161Z,95861.94
2022-08-05T06:05:21.403Z,95866.09
2022-08-05T06:08:01.455Z,95856.03
2022-08-05T06:10:29.374Z,95855.84
2022-08-05T06:13:02.987Z,95844.47
2022-08-05T06:16:30.015Z,95854.00
2022-08-05T06:18:16.194Z,95854.94
2022-08-05T06:20:47.703Z,95854.28
2022-08-05T06:23:14.613Z,95857.63
2022-08-05T06:26:12.269Z,95861.75
2022-08-05T06:28:28.741Z,95856.75
2022-08-05T06:30:55.716Z,95862.78
2022-08-05T06:33:52.251Z,95861.50
2022-08-05T06:36:10.052Z,95864.31
2022-08-05T06:38:37.201Z,95851.03
2022-08-05T06:41:05.456Z,95851.91
2022-08-05T06:43:59.441Z,95853.88
2022-08-05T06:46:21.299Z,95852.44
2022-08-05T06:48:56.382Z,95846.16
2022-08-05T06:51:30.263Z,95850.75
2022-08-05T06:54:02.598Z,95841.16
2022-08-05T06:56:30.111Z,95848.47
2022-08-05T06:59:00.019Z,95846.91
2022-08-05T07:01:27.614Z,95841.03
2022-08-05T07:04:01.453Z,95840.31
2022-08-05T07:06:29.341Z,95839.03
2022-08-05T07:08:56.026Z,95830.75
2022-08-05T07:11:25.761Z,95832.66
2022-08-05T07:14:15.352Z,95831.06
2022-08-05T07:18:02.423Z,95832.19
2022-08-05T07:22:28.504Z,95822.84
2022-08-05T07:25:23.148Z,95832.81
2022-08-05T07:27:58.180Z,95822.59
2022-08-05T07:30:39.703Z,95828.50
2022-08-05T07:33:10.649Z,95825.25
2022-08-05T07:36:01.625Z,95829.28
2022-08-05T07:38:33.210Z,95826.31
2022-08-05T07:42:06.863Z,95829.00
2022-08-05T07:43:52.369Z,95831.38
2022-08-05T07:46:24.855Z,95826.56
2022-08-05T07:49:02.099Z,95842.69
2022-08-05T07:51:41.157Z,95832.41
2022-08-05T07:54:19.019Z,95826.22
2022-08-05T07:57:13.242Z,95833.16
2022-08-05T07:59:39.941Z,95831.38
2022-08-05T08:02:16.470Z,95829.16
2022-08-05T08:04:48.960Z,95821.84
2022-08-05T08:07:22.388Z,95822.50
2022-08-05T08:09:52.056Z,95826.66
2022-08-05T08:12:37.518Z,95823.78
2022-08-05T08:15:09.384Z,95824.69
2022-08-05T08:17:40.762Z,95822.59
2022-08-05T08:20:43.194Z,95821.81
2022-08-05T08:23:03.101Z,95822.00
2022-08-05T08:25:36.021Z,95821.84
2022-08-05T08:28:18.447Z,95816.66
2022-08-05T08:31:02.524Z,95814.50
2022-08-05T08:33:37.662Z,95815.09
2022-08-05T08:36:40.183Z,95813.94
2022-08-05T08:38:53.293Z,95811.75
2022-08-05T08:41:21.439Z,95807.59
2022-08-05T08:45:18.981Z,95805.91
2022-08-05T08:46:43.930Z,95804.78
2022-08-05T08:50:05.937Z,95810.03
2022-08-05T08:52:13.931Z,95802.94
2022-08-05T08:54:43.064Z,95809.09
2022-08-05T08:57:13.362Z,95800.72
2022-08-05T08:59:41.879Z,95798.53
2022-08-05T09:02:14.635Z,95801.94
2022-08-05T09:04:58.543Z,95800.75
2022-08-05T09:07:40.049Z,95793.94
2022-08-05T09:10:19.882Z,95792.34
2022-08-05T09:12:51.001Z,95793.53
2022-08-05T09:15:20.265Z,95791.50
2022-08-05T09:17:49.752Z,95792.03
2022-08-05T09:20:21.067Z,95792.53
2022-08-05T09:23:07.729Z,95790.53
2022-08-05T09:26:00.281Z,95789.13
2022-08-05T09:28:24.529Z,95783.59
2022-08-05T09:31:23.266Z,95782.75
2022-08-05T09:34:01.080Z,95778.38
2022-08-05T09:36:55.716Z,95771.22
2022-08-05T09:39:41.268Z,95773.34
2022-08-05T09:42:23.246Z,95777.94
2022-08-05T09:44:56.512Z,95774.72
2022-08-05T09:47:26.181Z,95778.44
2022-08-05T09:50:01.728Z,95774.06
2022-08-05T09:52:36.391Z,95769.63
2022-08-05T09:55:57.169Z,95778.50
2022-08-05T09:58:00.029Z,95779.81
2022-08-05T10:00:27.670Z,95772.19
2022-08-05T10:02:58.083Z,95765.63
2022-08-05T10:05:32.696Z,95765.22
2022-08-05T10:08:34.631Z,95769.56
2022-08-05T10:10:53.943Z,95772.63
2022-08-05T10:13:43.985Z,95763.06
2022-08-05T10:16:41.553Z,95758.19
2022-08-05T10:19:10.054Z,95756.28
2022-08-05T10:21:40.826Z,95751.47
2022-08-05T10:24:13.698Z,95748.28
2022-08-05T10:26:49.177Z,95756.13
2022-08-05T10:29:23.646Z,95748.78
2022-08-05T10:32:52.878Z,95749.25
2022-08-05T10:34:57.604Z,95751.19
2022-08-05T10:37:37.141Z,95745.56
2022-08-05T10:40:17.786Z,95745.44
2022-08-05T10:42:50.747Z,95738.41
2022-08-05T10:45:30.624Z,95750.88
2022-08-05T10:48:39.639Z,95738.38
2022-08-05T10:51:28.428Z,95735.34
2022-08-05T10:54:01.559Z,95733.09
2022-08-05T10:56:45.364Z,95735.44
2022-08-05T11:00:02.606Z,95726.28
2022-08-05T11:02:34.572Z,95724.53
2022-08-05T11:05:05.419Z,95726.41
2022-08-05T11:07:32.945Z,95729.47
2022-08-05T11:10:27.562Z,95726.03
2022-08-05T11:12:57.436Z,95713.19
2022-08-05T11:15:59.147Z,95718.25
2022-08-05T11:18:34.160Z,95716.00
2022-08-05T11:21:02.898Z,95715.81
2022-08-05T11:24:05.191Z,95713.56
2022-08-05T11:26:40.480Z,95712.59
2022-08-05T11:29:42.707Z,95721.88
2022-08-05T11:32:27.505Z,95708.50
2022-08-05T11:34:55.319Z,95711.63
2022-08-05T11:38:26.148Z,95709.53
2022-08-05T11:41:34.206Z,95712.25
2022-08-05T11:44:06.062Z,95711.38
2022-08-05T11:46:36.073Z,95712.66
2022-08-05T11:49:06.234Z,95719.25
2022-08-05T11:51:44.256Z,95713.56
2022-08-05T11:54:38.348Z,95713.34
2022-08-05T11:57:25.516Z,95711.22
2022-08-05T11:59:52.861Z,95708.75
2022-08-05T12:02:29.781Z,95718.94
2022-08-05T12:05:00.538Z,95712.63
2022-08-05T12:08:03.110Z,95702.97
2022-08-05T12:10:22.763Z,95708.34
2022-08-05T12:12:59.942Z,95704.47
2022-08-05T12:15:35.792Z,95703.81
2022-08-05T12:18:11.051Z,95698.72
2022-08-05T12:20:39.419Z,95699.78
2022-08-05T12:23:11.314Z,95701.59
2022-08-05T12:25:58.332Z,95697.06
2022-08-05T12:28:36.805Z,95691.16
2022-08-05T12:31:04.020Z,95691.16
2022-08-05T12:33:37.048Z,95694.16
2022-08-05T12:36:09.641Z,95683.44
2022-08-05T12:38:41.200Z,95689.00
2022-08-05T12:41:16.421Z,95688.66
2022-08-05T12:43:50.233Z,95682.53
2022-08-05T12:46:28.840Z,95696.53
2022-08-05T12:49:13.656Z,95682.31
2022-08-05T12:52:14.355Z,95685.28
2022-08-05T12:54:37.274Z,95687.53
2022-08-05T12:57:09.651Z,95680.59
2022-08-05T13:01:58.267Z,95673.88
2022-08-05T13:02:42.581Z,95677.28
2022-08-05T13:05:14.778Z,95675.66
2022-08-05T13:07:59.472Z,95675.44
2022-08-05T13:10:27.063Z,95672.00
2022-08-05T13:12:57.971Z,95671.22
2022-08-05T13:15:42.203Z,95668.81
2022-08-05T13:18:20.040Z,95671.09
2022-08-05T13:20:47.648Z,95668.56
2022-08-05T13:23:22.125Z,95660.81
2022-08-05T13:25:52.206Z,95663.31
2022-08-05T13:28:27.128Z,95660.69
2022-08-05T13:30:53.801Z,95655.56
2022-08-05T13:34:21.912Z,95658.66
2022-08-05T13:36:09.279Z,95664.44
2022-08-05T13:38:41.923Z,95655.06
2022-08-05T13:41:09.725Z,95661.03
2022-08-05T13:43:43.378Z,95657.06
2022-08-05T13:46:11.698Z,95654.88
2022-08-05T13:48:58.613Z,95652.84
2022-08-05T13:51:29.356Z,95643.28
2022-08-05T13:54:03.509Z,95644.72
2022-08-05T13:56:51.214Z,95638.19
2022-08-05T13:59:24.957Z,95635.66
2022-08-05T14:01:59.096Z,95636.34
2022-08-05T14:04:56.188Z,95637.84
2022-08-05T14:07:59.617Z,95630.44
2022-08-05T14:10:28.661Z,95629.56
2022-08-05T14:12:57.185Z,95627.94
2022-08-05T14:16:07.499Z,95631.22
2022-08-05T14:18:15.231Z,95631.38
2022-08-05T14:20:47.153Z,95624.81
2022-08-05T14:23:24.638Z,95623.75
2022-08-05T14:25:53.968Z,95625.50
2022-08-05T14:28:26.940Z,95620.84
2022-08-05T14:30:54.570Z,95626.47
2022-08-05T14:33:22.580Z,95632.22
2022-08-05T14:35:52.105Z,95618.34
2022-08-05T14:38:31.905Z,95619.94
2022-08-05T14:41:01.645Z,95627.69
2022-08-05T14:44:01.881Z,95621.22
2022-08-05T14:46:18.956Z,95625.19
2022-08-05T14:48:49.150Z,95621.75
2022-08-05T14:51:17.539Z,95621.34
2022-08-05T14:53:44.975Z,95619.63
2022-08-05T14:56:12.113Z,95619.16
2022-08-05T14:58:47.512Z,95620.13
2022-08-05T15:01:47.171Z,95607.97
2022-08-05T15:04:11.455Z,95611.03
2022-08-05T15:06:38.920Z,95605.09
2022-08-05T15:09:07.468Z,95603.38
2022-08-05T15:11:52.387Z,95598.25
2022-08-05T15:14:42.221Z,95598.13
2022-08-05T15:17:44.597Z,95602.00
2022-08-05T15:20:04.126Z,95602.81
2022-08-05T15:22:30.663Z,95594.00
2022-08-05T15:24:59.170Z,95598.78
2022-08-05T15:27:26.518Z,95592.75
2022-08-05T15:29:59.231Z,95595.22
2022-08-05T15:32:27.219Z,95597.97
2022-08-05T15:34:55.504Z,95594.31
2022-08-05T15:38:33.680Z,95593.69
2022-08-05T15:40:59.836Z,95595.63
2022-08-05T15:43:09.375Z,95602.25
2022-08-05T15:45:45.746Z,95597.41
2022-08-05T15:48:14.241Z,95590.72
2022-08-05T15:50:40.990Z,95595.53
2022-08-05T15:53:12.536Z,95589.56
2022-08-05T15:56:02.986Z,95592.44
2022-08-05T15:58:26.699Z,95583.78
2022-08-05T16:01:04.347Z,95584.78
2022-08-05T16:03:40.982Z,95583.16
2022-08-05T16:06:09.262Z,95581.59
2022-08-05T16:08:38.166Z,95588.75
2022-08-05T16:11:05.076Z,95588.84
2022-08-05T16:13:34.140Z,95579.31
2022-08-05T16:16:02.038Z,95576.91
2022-08-05T16:18:30.226Z,95580.69
2022-08-05T16:20:57.555Z,95577.28
2022-08-05T16:23:24.285Z,95585.66
2022-08-05T16:25:55.787Z,95577.03
2022-08-05T16:28:24.251Z,95583.16
2022-08-05T16:30:52.139Z,95584.19
2022-08-05T16:33:19.340Z,95580.78
2022-08-05T16:35:49.898Z,95581.34
2022-08-05T16:38:25.365Z,95583.53
2022-08-05T16:41:00.852Z,95583.53
2022-08-05T16:43:33.575Z,95579.34
2022-08-05T16:46:13.096Z,95580.16
2022-08-05T16:48:50.418Z,95582.41
2022-08-05T16:51:17.547Z,95574.13
2022-08-05T16:54:05.241Z,95578.59
2022-08-05T16:56:33.823Z,95578.25
2022-08-05T16:59:08.312Z,95577.69
2022-08-05T17:01:53.957Z,95587.84
2022-08-05T17:04:23.731Z,95578.59
2022-08-05T17:06:53.717Z,95590.22
2022-08-05T17:09:20.583Z,95582.72
2022-08-05T17:11:48.792Z,95580.41
2022-08-05T17:14:34.172Z,95590.47
2022-08-05T17:17:04.017Z,95583.84
2022-08-05T17:19:31.391Z,95593.13
2022-08-05T17:21:58.535Z,95597.47
2022-08-05T17:24:35.172Z,95602.91
2022-08-05T17:27:08.993Z,95611.69
2022-08-05T17:29:40.785Z,95600.09
2022-08-05T17:32:17.396Z,95607.06
2022-08-05T17:34:47.707Z,95604.97
2022-08-05T17:37:41.051Z,95617.75
2022-08-05T17:40:10.242Z,95610.16
2022-08-05T17:42:39.951Z,95623.56
2022-08-05T17:45:20.363Z,95618.72
2022-08-05T17:47:52.900Z,95612.69
2022-08-05T17:50:28.749Z,95614.84
2022-08-05T17:53:01.619Z,95608.53
2022-08-05T17:55:37.416Z,95613.25
2022-08-05T17:58:12.487Z,95616.03
2022-08-05T18:00:44.383Z,95622.81
2022-08-05T18:03:28.009Z,95612.53
2022-08-05T18:06:04.563Z,95611.00
2022-08-05T18:08:33.512Z,95629.06
2022-08-05T18:11:01.042Z,95626.63
2022-08-05T18:13:36.758Z,95625.03
2022-08-05T18:16:13.321Z,95621.16
2022-08-05T18:18:41.630Z,95620.34
2022-08-05T18:21:19.651Z,95620.63
2022-08-05T18:23:48.055Z,95632.09
2022-08-05T18:26:14.815Z,95631.09
2022-08-05T18:28:46.583Z,95635.03
2022-08-05T18:31:15.930Z,95633.50
2022-08-05T18:33:47.085Z,95644.41
2022-08-05T18:36:15.452Z,95642.09
2022-08-05T18:38:42.756Z,95644.56
2022-08-05T18:41:55.541Z,95647.03
2022-08-05T18:43:56.071Z,95644.69
2022-08-05T18:46:22.786Z,95644.13
2022-08-05T18:48:53.585Z,95646.84
2022-08-05T18:52:06.402Z,95639.44
2022-08-05T18:54:31.260Z,95642.50
2022-08-05T18:57:00.963Z,95658.66
2022-08-05T18:59:43.323Z,95654.88
2022-08-05T19:02:26.640Z,95650.84
2022-08-05T19:06:05.320Z,95663.88
2022-08-05T19:07:53.090Z,95667.69
2022-08-05T19:10:26.550Z,95669.28
2022-08-05T19:12:54.944Z,95666.44
2022-08-05T19:15:57.512Z,95671.97
2022-08-05T19:18:13.655Z,95673.50
2022-08-05T19:20:51.583Z,95675.00
2022-08-05T19:24:03.523Z,95682.38
2022-08-05T19:26:05.524Z,95675.31
2022-08-05T19:28:41.530Z,95684.69
2022-08-05T19:31:09.034Z,95684.03
2022-08-05T19:33:40.722Z,95679.59
2022-08-05T19:36:16.950Z,95671.63
2022-08-05T19:38:45.170Z,95676.84
2022-08-05T19:41:11.738Z,95675.69
2022-08-05T19:44:05.402Z,95691.72
2022-08-05T19:46:30.160Z,95683.75
2022-08-05T19:49:03.199Z,95680.28
2022-08-05T19:52:05.040Z,95679.81
2022-08-05T19:54:27.226Z,95677.25
2022-08-05T19:57:06.488Z,95677.50
2022-08-05T19:59:55.577Z,95673.56
2022-08-05T20:02:22.867Z,95668.25
2022-08-05T20:04:49.935Z,95675.59
2022-08-05T20:07:47.437Z,95678.06
2022-08-05T20:10:13.483Z,95673.84
2022-08-05T20:12:48.206Z,95672.28
2022-08-05T20:15:47.885Z,95678.31
2022-08-05T20:18:10.384Z,95680.00
2022-08-05T20:20:56.004Z,95681.72
2022-08-05T20:23:39.270Z,95689.88
2022-08-05T20:26:16.213Z,95684.00
2022-08-05T20:28:44.241Z,95684.59
2022-08-05T20:31:11.262Z,95684.91
2022-08-05T20:33:37.849Z,95684.19
2022-08-05T20:36:09.019Z,95686.34
2022-08-05T20:38:37.663Z,95690.16
2022-08-05T20:41:08.449Z,95692.91
2022-08-05T20:43:59.683Z,95688.66
2022-08-05T20:46:25.177Z,95689.75
2022-08-05T20:48:52.262Z,95688.72
2022-08-05T20:51:18.914Z,95687.66
2022-08-05T20:53:55.234Z,95695.78
2022-08-05T20:56:28.168Z,95690.69
2022-08-05T20:58:56.663Z,95690.44
2022-08-05T21:01:38.172Z,95691.28
2022-08-05T21:04:07.322Z,95690.25
2022-08-05T21:06:38.397Z,95686.78
2022-08-05T21:09:14.271Z,95689.50
2022-08-05T21:12:09.902Z,95691.97
2022-08-05T21:14:28.661Z,95687.13
2022-08-05T21:17:01.249Z,95692.00
2022-08-05T21:19:29.654Z,95688.50
2022-08-05T21:22:14.540Z,95693.91
2022-08-05T21:24:41.058Z,95699.59
2022-08-05T21:27:09.288Z,95697.75
2022-08-05T21:29:40.690Z,95693.97
2022-08-05T21:32:07.771Z,95704.47
2022-08-05T21:34:35.478Z,95706.91
2022-08-05T21:37:02.494Z,95708.81
2022-08-05T21:39:29.497Z,95699.97
2022-08-05T21:42:01.018Z,95703.97
2022-08-05T21:44:28.515Z,95706.69
2022-08-05T21:46:55.748Z,95701.03
2022-08-05T21:49:56.570Z,95711.28
2022-08-05T21:52:27.828Z,95706.72
2022-08-05T21:54:56.090Z,95713.97
2022-08-05T21:57:31.559Z,95717.19
2022-08-05T22:00:06.346Z,95726.34
2022-08-05T22:02:33.798Z,95723.13
2022-08-05T22:05:00.408Z,95722.03
2022-08-05T22:07:39.717Z,95715.06
2022-08-05T22:10:16.605Z,95723.66
2022-08-05T22:12:44.770Z,95727.13
2022-08-05T22:16:00.342Z,95723.66
2022-08-05T22:18:04.229Z,95730.91
2022-08-05T22:20:30.843Z,95723.13
2022-08-05T22:23:21.494Z,95730.66
2022-08-05T22:26:10.102Z,95715.63
2022-08-05T22:28:38.780Z,95713.72
2022-08-05T22:31:06.277Z,95718.81
2022-08-05T22:33:55.543Z,95716.94
2022-08-05T22:36:19.735Z,95718.53
2022-08-05T22:38:50.769Z,95713.97
2022-08-05T22:42:04.847Z,95710.75
2022-08-05T22:44:07.180Z,95717.19
2022-08-05T22:46:33.998Z,95710.47
2022-08-05T22:49:12.143Z,95711.00
2022-08-05T22:52:06.136Z,95703.22
2022-08-05T22:54:36.746Z,95699.19
2022-08-05T22:57:06.886Z,95711.00
2022-08-05T22:59:45.161Z,95706.97
2022-08-05T23:02:13.712Z,95701.06
2022-08-05T23:04:51.243Z,95702.66
2022-08-05T23:07:18.994Z,95696.19
2022-08-05T23:09:58.310Z,95692.97
2022-08-05T23:12:32.732Z,95690.28
2022-08-05T23:15:03.938Z,95689.19
2022-08-05T23:17:37.884Z,95688.91
2022-08-05T23:20:23.549Z,95683.81
2022-08-05T23:22:52.785Z,95689.16
2022-08-05T23:25:54.773Z,95684.28
2022-08-05T23:28:10.822Z,95677.59
2022-08-05T23:30:40.428Z,95678.69
2022-08-05T23:33:21.961Z,95670.09
2022-08-05T23:35:55.907Z,95677.03
2022-08-05T23:38:24.219Z,95678.88
2022-08-05T23:40:52.688Z,95681.56
2022-08-05T23:43:24.811Z,95682.91
2022-08-05T23:46:03.361Z,95685.56
2022-08-05T23:48:29.968Z,95684.22
2022-08-05T23:50:56.526Z,95682.06
2022-08-05T23:53:40.662Z,95683.38
2022-08-05T23:56:11.975Z,95683.34
2022-08-05T23:58:38.828Z,95687.38
